Time,TemperatureF,DewpointF,PressureIn,WindDirection,WindDirectionDegrees,WindSpeedMPH,WindSpeedGustMPH,Humidity,HourlyPrecipIn,Conditions,Clouds,dailyrainin,SoftwareType,DateUTC
2013-11-22 00:00:00,81.8,76.5,29.93,ENE,68,3.0,8.0,84,0.00,,,0.00,VWS V14.01,2013-11-22 06:00:00,
2013-11-22 00:30:00,81.3,76.0,29.93,ENE,68,2.0,8.0,84,0.00,,,0.00,VWS V14.01,2013-11-22 06:30:00,
2013-11-22 01:00:00,80.8,75.9,29.92,ENE,68,1.0,5.0,85,0.00,,,0.00,VWS V14.01,2013-11-22 07:00:00,
2013-11-22 01:30:00,80.7,76.1,29.91,ENE,68,1.0,5.0,86,0.00,,,0.00,VWS V14.01,2013-11-22 07:30:00,
2013-11-22 02:00:00,80.8,75.2,29.91,NE,45,1.0,6.0,83,0.00,,,0.00,VWS V14.01,2013-11-22 08:00:00,
2013-11-22 02:30:00,80.8,75.5,29.90,NE,45,1.0,7.0,84,0.00,,,0.00,VWS V14.01,2013-11-22 08:30:00,
2013-11-22 03:00:00,80.5,75.6,29.89,ENE,68,0.0,4.0,85,0.00,,,0.00,VWS V14.01,2013-11-22 09:00:00,
2013-11-22 03:30:00,79.9,75.3,29.90,NE,45,0.0,3.0,86,0.00,,,0.00,VWS V14.01,2013-11-22 09:30:00,
2013-11-22 04:00:00,79.3,75.4,29.90,NNE,22,0.0,1.0,88,0.00,,,0.00,VWS V14.01,2013-11-22 10:00:00,
2013-11-22 04:30:00,79.6,75.7,29.91,NE,45,0.0,2.0,88,0.00,,,0.00,VWS V14.01,2013-11-22 10:30:00,
2013-11-22 05:00:00,80.6,76.4,29.92,SE,135,1.0,5.0,87,0.00,,,0.00,VWS V14.01,2013-11-22 11:00:00,
2013-11-22 05:30:00,80.7,76.5,29.92,SSE,158,3.0,8.0,87,0.00,,,0.00,VWS V14.01,2013-11-22 11:30:00,
2013-11-22 06:00:00,78.3,75.5,29.94,SE,135,2.0,7.0,91,0.27,,,0.27,VWS V14.01,2013-11-22 12:00:00,
2013-11-22 06:30:00,77.0,74.8,29.94,ENE,68,0.0,3.0,93,0.66,,,0.66,VWS V14.01,2013-11-22 12:30:00,
2013-11-22 07:00:00,79.8,76.3,29.94,SSW,202,0.0,2.0,89,0.72,,,0.72,VWS V14.01,2013-11-22 13:00:00,
2013-11-22 07:30:00,83.1,77.4,29.96,SSW,202,0.0,2.0,83,0.45,,,0.72,VWS V14.01,2013-11-22 13:30:00,
2013-11-22 08:00:00,81.3,76.7,29.97,SSW,202,1.0,3.0,86,0.06,,,0.72,VWS V14.01,2013-11-22 14:00:00,
2013-11-22 08:30:00,81.1,76.5,29.98,WSW,248,1.0,3.0,86,0.00,,,0.72,VWS V14.01,2013-11-22 14:30:00,
2013-11-22 09:00:00,80.2,76.7,29.97,WNW,292,0.0,2.0,89,0.03,,,0.75,VWS V14.01,2013-11-22 15:00:00,
2013-11-22 09:30:00,83.3,78.0,29.97,WSW,248,0.0,2.0,84,0.03,,,0.75,VWS V14.01,2013-11-22 15:30:00,
2013-11-22 10:00:00,80.8,76.6,29.97,ENE,68,0.0,2.0,87,0.05,,,0.77,VWS V14.01,2013-11-22 16:00:00,
2013-11-22 10:30:00,80.4,76.9,29.97,WSW,248,0.0,2.0,89,0.02,,,0.77,VWS V14.01,2013-11-22 16:30:00,
2013-11-22 11:00:00,78.5,76.0,29.97,ENE,68,1.0,6.0,92,0.16,,,0.91,VWS V14.01,2013-11-22 17:00:00,
2013-11-22 11:30:00,78.5,76.0,29.94,ENE,68,2.0,5.0,92,0.22,,,0.99,VWS V14.01,2013-11-22 17:30:00,
2013-11-22 12:00:00,79.3,76.1,29.92,SSW,202,1.0,4.0,90,0.22,,,0.99,VWS V14.01,2013-11-22 18:00:00,
2013-11-22 12:30:00,78.5,76.0,29.90,WSW,248,1.0,4.0,92,0.08,,,0.99,VWS V14.01,2013-11-22 18:30:00,
2013-11-22 13:00:00,79.2,76.7,29.90,WSW,248,1.0,4.0,92,0.00,,,0.99,VWS V14.01,2013-11-22 19:00:00,
2013-11-22 13:30:00,79.7,76.8,29.88,WNW,292,0.0,2.0,91,0.00,,,0.99,VWS V14.01,2013-11-22 19:30:00,
2013-11-22 14:00:00,80.3,77.1,29.88,WNW,292,0.0,2.0,90,0.00,,,0.99,VWS V14.01,2013-11-22 20:00:00,
2013-11-22 14:30:00,80.4,77.2,29.87,WSW,248,1.0,4.0,90,0.00,,,0.99,VWS V14.01,2013-11-22 20:30:00,
2013-11-22 15:00:00,80.1,76.9,29.87,West,270,0.0,2.0,90,0.00,,,0.99,VWS V14.01,2013-11-22 21:00:00,
2013-11-22 15:30:00,80.4,77.2,29.87,WSW,248,0.0,1.0,90,0.00,,,0.99,VWS V14.01,2013-11-22 21:30:00,
2013-11-22 16:00:00,80.7,77.5,29.86,WSW,248,0.0,1.0,90,0.00,,,0.99,VWS V14.01,2013-11-22 22:00:00,
2013-11-22 16:30:00,80.6,77.4,29.87,NE,45,0.0,2.0,90,0.00,,,0.99,VWS V14.01,2013-11-22 22:30:00,
2013-11-22 17:00:00,80.2,77.0,29.88,ENE,68,0.0,2.0,90,0.00,,,0.99,VWS V14.01,2013-11-22 23:00:00,
2013-11-22 17:30:00,78.8,76.6,29.89,NE,45,0.0,1.0,93,0.00,,,0.99,VWS V14.01,2013-11-22 23:30:00,
2013-11-22 18:00:00,78.6,76.4,29.90,NE,45,0.0,1.0,93,0.00,,,0.99,VWS V14.01,2013-11-23 00:00:00,
2013-11-22 18:30:00,77.9,76.4,29.91,NNW,338,0.0,1.0,95,0.00,,,0.99,VWS V14.01,2013-11-23 00:30:00,
2013-11-22 19:00:00,78.0,76.1,29.92,North,0,0.0,1.0,94,0.00,,,0.99,VWS V14.01,2013-11-23 01:00:00,
2013-11-22 19:30:00,77.8,75.9,29.92,NNW,338,0.0,2.0,94,0.00,,,0.99,VWS V14.01,2013-11-23 01:30:00,
2013-11-22 20:00:00,77.2,75.7,29.93,NNW,338,1.0,2.0,95,0.00,,,0.99,VWS V14.01,2013-11-23 02:00:00,
2013-11-22 20:30:00,77.2,75.7,29.94,NNW,338,0.0,2.0,95,0.00,,,0.99,VWS V14.01,2013-11-23 02:30:00,
2013-11-22 21:00:00,77.2,75.7,29.93,NNW,338,0.0,1.0,95,0.00,,,0.99,VWS V14.01,2013-11-23 03:00:00,
2013-11-22 21:30:00,77.1,75.9,29.94,NNW,338,1.0,2.0,96,0.00,,,0.99,VWS V14.01,2013-11-23 03:30:00,
2013-11-22 22:00:00,77.5,76.0,29.93,ENE,68,0.0,2.0,95,0.00,,,0.99,VWS V14.01,2013-11-23 04:00:00,
2013-11-22 22:30:00,77.3,75.4,29.92,North,0,0.0,1.0,94,0.00,,,0.99,VWS V14.01,2013-11-23 04:30:00,
2013-11-22 23:00:00,77.2,75.7,29.92,NNW,338,0.0,1.0,95,0.00,,,0.99,VWS V14.01,2013-11-23 05:00:00,
2013-11-22 23:30:00,78.2,75.4,29.91,NE,45,0.0,4.0,91,0.00,,,0.99,VWS V14.01,2013-11-23 05:30:00,